createdAt,value
2023-03-10T00:01:48.905Z,98829.19
2023-03-10T00:04:19.240Z,98850.38
2023-03-10T00:06:48.299Z,98855.63
2023-03-10T00:09:17.270Z,98820.44
2023-03-10T00:11:46.614Z,98862.56
2023-03-10T00:14:15.628Z,98862.88
2023-03-10T00:16:47.664Z,98860.59
2023-03-10T00:19:18.396Z,98745.25
2023-03-10T00:21:47.606Z,98843.97
2023-03-10T00:24:16.564Z,98833.59
2023-03-10T00:26:45.809Z,98843.16
2023-03-10T00:29:15.163Z,98865.69
2023-03-10T00:31:44.203Z,98838.69
2023-03-10T00:34:13.961Z,98870.47
2023-03-10T00:36:44.849Z,98875.78
2023-03-10T00:39:14.202Z,98841.59
2023-03-10T00:41:43.278Z,98857.81
2023-03-10T00:44:13.314Z,98919.25
2023-03-10T00:46:42.473Z,98902.81
2023-03-10T00:49:16.587Z,98906.56
2023-03-10T00:51:47.000Z,98930.09
2023-03-10T00:54:16.484Z,98953.41
2023-03-10T00:56:45.479Z,98966.47
2023-03-10T00:59:14.746Z,98959.22
2023-03-10T01:01:44.324Z,98943.09
2023-03-10T01:04:16.628Z,98969.78
2023-03-10T01:06:52.889Z,98969.41
2023-03-10T01:09:22.782Z,98940.94
2023-03-10T01:11:51.957Z,98997.38
2023-03-10T01:14:21.679Z,98993.69
2023-03-10T01:16:51.182Z,98977.56
2023-03-10T01:19:20.676Z,99018.06
2023-03-10T01:21:50.969Z,99024.47
2023-03-10T01:24:20.073Z,99029.16
2023-03-10T01:26:49.122Z,99047.00
2023-03-10T01:29:18.151Z,99033.50
2023-03-10T01:31:48.700Z,99036.56
2023-03-10T01:34:18.024Z,99005.59
2023-03-10T01:36:47.215Z,98972.47
2023-03-10T01:39:18.928Z,99048.00
2023-03-10T01:41:48.252Z,99051.22
2023-03-10T01:44:20.215Z,99057.03
2023-03-10T01:46:51.430Z,99055.59
2023-03-10T01:49:41.751Z,99050.72
2023-03-10T01:52:17.720Z,99061.06
2023-03-10T01:54:51.798Z,99038.38
2023-03-10T01:57:25.930Z,99061.47
2023-03-10T01:59:56.979Z,99076.66
2023-03-10T02:02:27.380Z,99071.97
2023-03-10T02:04:59.717Z,99087.19
2023-03-10T02:07:35.680Z,99081.25
2023-03-10T02:10:07.752Z,99108.38
2023-03-10T02:12:38.381Z,99059.56
2023-03-10T02:15:08.857Z,99127.53
2023-03-10T02:17:38.939Z,99117.09
2023-03-10T02:20:22.296Z,99120.66
2023-03-10T02:22:52.226Z,99155.81
2023-03-10T02:25:34.933Z,99132.94
2023-03-10T02:28:06.653Z,99171.63
2023-03-10T02:30:39.025Z,99161.66
2023-03-10T02:33:12.674Z,99151.41
2023-03-10T02:35:42.375Z,99181.44
2023-03-10T02:38:15.531Z,99161.66
2023-03-10T02:40:47.483Z,99165.81
2023-03-10T02:43:25.098Z,99149.53
2023-03-10T02:46:06.293Z,99170.00
2023-03-10T02:48:40.416Z,99183.34
2023-03-10T02:51:17.655Z,99185.56
2023-03-10T02:53:47.107Z,99151.41
2023-03-10T02:56:17.285Z,99174.97
2023-03-10T02:58:50.184Z,99179.88
2023-03-10T03:01:19.348Z,99190.63
2023-03-10T03:03:48.592Z,99184.00
2023-03-10T03:06:17.808Z,99210.03
2023-03-10T03:08:47.643Z,99161.44
2023-03-10T03:11:19.504Z,99222.81
2023-03-10T03:13:51.106Z,99220.06
2023-03-10T03:16:20.341Z,99196.50
2023-03-10T03:18:54.310Z,99221.59
2023-03-10T03:21:26.091Z,99229.19
2023-03-10T03:23:56.375Z,99195.47
2023-03-10T03:26:28.114Z,99236.41
2023-03-10T03:29:03.964Z,99221.34
2023-03-10T03:31:36.227Z,99251.66
2023-03-10T03:34:12.861Z,99262.59
2023-03-10T03:36:42.104Z,99265.38
2023-03-10T03:39:17.466Z,99271.59
2023-03-10T03:41:53.438Z,99279.38
2023-03-10T03:44:24.661Z,99275.88
2023-03-10T03:46:54.868Z,99270.97
2023-03-10T03:49:25.280Z,99223.63
2023-03-10T03:51:54.610Z,99282.06
2023-03-10T03:54:25.717Z,99265.31
2023-03-10T03:56:56.134Z,99263.94
2023-03-10T03:59:26.881Z,99283.75
2023-03-10T04:01:57.180Z,99225.56
2023-03-10T04:04:27.472Z,99300.28
2023-03-10T04:06:57.903Z,99260.31
2023-03-10T04:09:27.171Z,99298.06
2023-03-10T04:11:56.354Z,99282.00
2023-03-10T04:14:27.423Z,99255.78
2023-03-10T04:16:58.220Z,99279.44
2023-03-10T04:19:27.565Z,99283.31
2023-03-10T04:22:02.617Z,99285.94
2023-03-10T04:24:34.164Z,99311.34
2023-03-10T04:27:03.510Z,99316.56
2023-03-10T04:29:34.130Z,99299.13
2023-03-10T04:32:05.818Z,99317.44
2023-03-10T04:34:40.107Z,99316.91
2023-03-10T04:37:10.501Z,99333.13
2023-03-10T04:39:40.319Z,99297.03
2023-03-10T04:42:10.280Z,99291.34
2023-03-10T04:44:41.154Z,99337.28
2023-03-10T04:47:10.456Z,99316.00
2023-03-10T04:49:39.894Z,99349.06
2023-03-10T04:52:14.437Z,99299.13
2023-03-10T04:54:44.702Z,99339.13
2023-03-10T04:57:14.065Z,99320.84
2023-03-10T04:59:45.681Z,99314.78
2023-03-10T05:02:15.170Z,99318.16
2023-03-10T05:04:44.672Z,99349.00
2023-03-10T05:07:14.324Z,99356.13
2023-03-10T05:09:49.729Z,99351.66
2023-03-10T05:12:19.376Z,99323.47
2023-03-10T05:14:50.479Z,99314.09
2023-03-10T05:17:19.843Z,99372.56
2023-03-10T05:19:50.321Z,99356.63
2023-03-10T05:22:20.215Z,99346.03
2023-03-10T05:24:50.391Z,99320.00
2023-03-10T05:27:22.109Z,99361.31
2023-03-10T05:29:53.945Z,99356.50
2023-03-10T05:32:26.955Z,99374.03
2023-03-10T05:34:57.572Z,99381.59
2023-03-10T05:37:27.619Z,99356.13
2023-03-10T05:39:59.431Z,99382.31
2023-03-10T05:42:28.608Z,99360.19
2023-03-10T05:44:59.566Z,99375.34
2023-03-10T05:47:29.104Z,99391.84
2023-03-10T05:49:58.305Z,99369.88
2023-03-10T05:52:31.307Z,99381.38
2023-03-10T05:55:03.232Z,99378.25
2023-03-10T05:57:32.397Z,99390.75
2023-03-10T06:00:03.307Z,99407.56
2023-03-10T06:02:42.912Z,99421.88
2023-03-10T06:05:17.619Z,99422.00
2023-03-10T06:07:57.652Z,99393.06
2023-03-10T06:10:29.010Z,99268.91
2023-03-10T06:13:10.609Z,99440.16
2023-03-10T06:16:08.085Z,99364.38
2023-03-10T06:18:38.592Z,99253.38
2023-03-10T06:21:19.288Z,99448.41
2023-03-10T06:23:48.783Z,99402.97
2023-03-10T06:26:32.522Z,99450.75
2023-03-10T06:29:04.283Z,99441.66
2023-03-10T06:31:35.328Z,99452.41
2023-03-10T06:34:07.991Z,99410.78
2023-03-10T06:36:40.623Z,99429.81
2023-03-10T06:39:10.522Z,99413.47
2023-03-10T06:41:39.846Z,99391.44
2023-03-10T06:46:59.681Z,99429.19
2023-03-10T06:49:31.373Z,99453.41
2023-03-10T06:52:01.139Z,99427.50
2023-03-10T06:54:32.118Z,99439.16
2023-03-10T06:57:03.503Z,99429.41
2023-03-10T06:59:33.044Z,99401.31
2023-03-10T07:02:09.214Z,99436.47
2023-03-10T07:04:41.564Z,99425.59
2023-03-10T07:07:29.298Z,99430.09
2023-03-10T07:09:58.820Z,99424.59
2023-03-10T07:12:30.098Z,99392.75
2023-03-10T07:15:00.585Z,99433.28
2023-03-10T07:17:31.601Z,99434.63
2023-03-10T07:20:01.608Z,99440.41
2023-03-10T07:22:31.125Z,99449.31
2023-03-10T07:25:00.267Z,99459.06
2023-03-10T07:27:35.644Z,99421.88
2023-03-10T07:30:05.428Z,99365.88
2023-03-10T07:32:38.485Z,99390.06
2023-03-10T07:35:12.149Z,99489.31
2023-03-10T07:37:51.494Z,99471.03
2023-03-10T07:40:25.153Z,99498.97
2023-03-10T07:42:56.511Z,99493.22
2023-03-10T07:45:33.289Z,99486.19
2023-03-10T07:48:03.850Z,99511.00
2023-03-10T07:50:33.273Z,99509.47
2023-03-10T07:53:03.976Z,99497.06
2023-03-10T07:55:36.621Z,99508.97
2023-03-10T07:58:06.047Z,99500.50
2023-03-10T08:00:38.670Z,99505.66
2023-03-10T08:03:09.424Z,99514.69
2023-03-10T08:05:43.467Z,99514.94
2023-03-10T08:08:12.776Z,99527.34
2023-03-10T08:10:42.547Z,99507.41
2023-03-10T08:13:12.239Z,99529.41
2023-03-10T08:15:46.571Z,99455.91
2023-03-10T08:18:17.424Z,99491.34
2023-03-10T08:20:46.919Z,99512.38
2023-03-10T08:23:16.211Z,99520.00
2023-03-10T08:25:45.509Z,99508.66
2023-03-10T08:28:14.957Z,99517.88
2023-03-10T08:31:02.493Z,99521.66
2023-03-10T08:33:36.178Z,99459.50
2023-03-10T08:36:11.141Z,99474.53
2023-03-10T08:38:41.144Z,99476.31
2023-03-10T08:41:18.299Z,99462.69
2023-03-10T08:43:49.298Z,99479.09
2023-03-10T08:46:32.025Z,99470.50
2023-03-10T08:49:33.459Z,99466.09
2023-03-10T08:52:11.407Z,99483.59
2023-03-10T08:54:41.140Z,99484.00
2023-03-10T08:57:11.670Z,99485.78
2023-03-10T08:59:51.736Z,99485.25
2023-03-10T09:02:26.853Z,99476.78
2023-03-10T09:05:00.401Z,99495.88
2023-03-10T09:07:31.552Z,99466.50
2023-03-10T09:10:01.540Z,99495.75
2023-03-10T09:12:36.849Z,99464.66
2023-03-10T09:15:08.432Z,99485.91
2023-03-10T09:17:41.021Z,99480.00
2023-03-10T09:20:12.915Z,99480.50
2023-03-10T09:22:42.891Z,99435.53
2023-03-10T09:25:12.559Z,99470.75
2023-03-10T09:27:46.812Z,99480.69
2023-03-10T09:30:19.233Z,99496.59
2023-03-10T09:32:48.466Z,99460.03
2023-03-10T09:35:19.733Z,99508.25
2023-03-10T09:37:48.780Z,99455.88
2023-03-10T09:40:22.554Z,99468.88
2023-03-10T09:42:58.414Z,99501.13
2023-03-10T09:45:37.490Z,99509.91
2023-03-10T09:52:28.967Z,99301.84
2023-03-10T09:55:08.531Z,99288.38
2023-03-10T09:57:39.899Z,99408.63
2023-03-10T10:03:59.684Z,99374.03
2023-03-10T10:06:46.670Z,99398.72
2023-03-10T10:09:30.469Z,99391.53
2023-03-10T10:12:08.133Z,99457.94
2023-03-10T10:14:40.340Z,99472.63
2023-03-10T10:17:24.354Z,99412.94
2023-03-10T10:19:54.700Z,99468.19
2023-03-10T10:22:28.355Z,99472.81
2023-03-10T10:25:15.550Z,99428.28
2023-03-10T10:27:52.906Z,99445.91
2023-03-10T10:30:31.820Z,99473.78
2023-03-10T10:33:03.339Z,99439.13
2023-03-10T10:35:35.452Z,99464.69
2023-03-10T10:38:07.003Z,99460.81
2023-03-10T10:40:48.261Z,99456.91
2023-03-10T10:43:19.837Z,99422.50
2023-03-10T10:45:55.318Z,99423.78
2023-03-10T10:48:41.192Z,99339.16
2023-03-10T10:51:22.107Z,99413.44
2023-03-10T10:53:51.860Z,99422.94
2023-03-10T10:56:24.201Z,99410.78
2023-03-10T10:59:05.496Z,99443.94
2023-03-10T11:01:52.942Z,99450.56
2023-03-10T11:04:23.590Z,99457.56
2023-03-10T11:06:54.145Z,99454.56
2023-03-10T11:09:27.624Z,99455.03
2023-03-10T11:12:06.935Z,99466.13
2023-03-10T11:14:45.968Z,99443.81
2023-03-10T11:17:23.336Z,99408.13
2023-03-10T11:20:06.702Z,99439.22
2023-03-10T11:22:43.298Z,99435.00
2023-03-10T11:25:21.799Z,99409.81
2023-03-10T11:28:02.468Z,99418.94
2023-03-10T11:30:34.980Z,99380.19
2023-03-10T11:33:15.319Z,99433.63
2023-03-10T11:35:47.156Z,99419.22
2023-03-10T11:38:47.299Z,99429.84
2023-03-10T11:41:25.136Z,99433.03
2023-03-10T11:44:01.827Z,99434.13
2023-03-10T11:46:37.627Z,99435.59
2023-03-10T11:49:12.426Z,99405.97
2023-03-10T11:51:47.018Z,99365.00
2023-03-10T11:54:21.449Z,99402.13
2023-03-10T11:57:18.505Z,99383.19
2023-03-10T11:59:54.666Z,99381.38
2023-03-10T12:02:28.254Z,99346.91
2023-03-10T12:05:03.208Z,99364.88
2023-03-10T12:07:37.792Z,99363.75
2023-03-10T12:10:16.923Z,99253.69
2023-03-10T12:12:50.908Z,99269.66
2023-03-10T12:15:24.971Z,99372.56
2023-03-10T12:17:55.529Z,99383.91
2023-03-10T12:20:29.076Z,99334.22
2023-03-10T12:22:59.847Z,99329.16
2023-03-10T12:25:46.869Z,99403.66
2023-03-10T12:28:34.033Z,99318.75
2023-03-10T12:31:55.308Z,99212.03
2023-03-10T12:34:36.378Z,99290.03
2023-03-10T12:37:25.729Z,99378.81
2023-03-10T12:40:31.400Z,99381.16
2023-03-10T12:43:53.244Z,99384.13
2023-03-10T12:46:40.644Z,99369.03
2023-03-10T12:49:33.022Z,99377.22
2023-03-10T12:52:24.878Z,99381.22
2023-03-10T12:55:04.624Z,99378.84
2023-03-10T13:06:32.700Z,99361.47
2023-03-10T13:09:52.936Z,99163.50
2023-03-10T13:12:35.267Z,99354.16
2023-03-10T13:15:08.598Z,99339.72
2023-03-10T13:17:38.138Z,99316.44
2023-03-10T13:20:17.440Z,99307.53
2023-03-10T13:22:55.093Z,99297.44
2023-03-10T13:25:25.221Z,99332.88
2023-03-10T13:27:57.618Z,99318.56
2023-03-10T13:30:30.660Z,99315.97
2023-03-10T13:33:04.575Z,99328.69
2023-03-10T13:35:38.257Z,99323.34
2023-03-10T13:38:14.202Z,99286.41
2023-03-10T13:40:46.215Z,99314.94
2023-03-10T13:43:34.390Z,99317.53
2023-03-10T13:46:10.188Z,99296.69
2023-03-10T13:48:42.558Z,99280.91
2023-03-10T13:51:32.280Z,99292.28
2023-03-10T13:56:46.419Z,99170.16
2023-03-10T13:58:40.895Z,99266.66
2023-03-10T14:01:23.230Z,99291.13
2023-03-10T14:04:08.141Z,99181.41
2023-03-10T14:06:42.175Z,99207.78
2023-03-10T14:09:23.791Z,99285.53
2023-03-10T14:12:01.027Z,99277.13
2023-03-10T14:14:32.613Z,99218.84
2023-03-10T14:17:04.160Z,99293.66
2023-03-10T14:19:48.649Z,99290.06
2023-03-10T14:22:38.060Z,99290.63
2023-03-10T14:25:14.308Z,99280.81
2023-03-10T14:27:46.061Z,99277.72
2023-03-10T14:30:25.584Z,99296.81
2023-03-10T14:32:56.250Z,99265.81
2023-03-10T14:35:27.012Z,99284.53
2023-03-10T14:37:57.891Z,99274.50
2023-03-10T14:40:30.070Z,99286.59
2023-03-10T14:43:01.785Z,99273.03
2023-03-10T14:45:34.012Z,99271.16
2023-03-10T14:48:07.577Z,99289.75
2023-03-10T14:50:36.829Z,99288.22
2023-03-10T14:53:10.353Z,99280.44
2023-03-10T14:55:40.131Z,99279.19
2023-03-10T14:58:15.170Z,99265.34
2023-03-10T15:00:44.581Z,99276.31
2023-03-10T15:03:17.622Z,99231.75
2023-03-10T15:06:57.810Z,99264.31
2023-03-10T15:09:28.824Z,99257.53
2023-03-10T15:11:59.818Z,99249.38
2023-03-10T15:14:31.690Z,99254.19
2023-03-10T15:17:04.299Z,99251.91
2023-03-10T15:19:35.211Z,99161.38
2023-03-10T15:22:05.117Z,99252.31
2023-03-10T15:24:36.500Z,99233.41
2023-03-10T15:27:06.546Z,99237.22
2023-03-10T15:29:36.085Z,99251.94
2023-03-10T15:32:05.632Z,99255.09
2023-03-10T15:34:35.397Z,99258.53
2023-03-10T15:37:07.459Z,99246.94
2023-03-10T15:39:38.554Z,99250.31
2023-03-10T15:42:08.077Z,99240.72
2023-03-10T15:44:37.317Z,99246.00
2023-03-10T15:47:09.500Z,99268.16
2023-03-10T15:49:41.095Z,99229.59
2023-03-10T15:52:16.696Z,99157.59
2023-03-10T15:54:47.465Z,99224.78
2023-03-10T15:57:17.145Z,99259.97
2023-03-10T15:59:47.157Z,99246.94
2023-03-10T16:02:16.735Z,99234.78
2023-03-10T16:05:18.940Z,99241.50
2023-03-10T16:07:51.533Z,99233.31
2023-03-10T16:10:27.783Z,99186.03
2023-03-10T16:13:01.122Z,99228.63
2023-03-10T16:15:30.672Z,99229.06
2023-03-10T16:18:02.164Z,99202.69
2023-03-10T16:20:44.664Z,99156.38
2023-03-10T16:23:14.778Z,99089.81
2023-03-10T16:25:45.418Z,99224.78
2023-03-10T16:28:14.995Z,99222.63
2023-03-10T16:30:44.780Z,99186.72
2023-03-10T16:33:18.430Z,99167.69
2023-03-10T16:35:48.717Z,99226.44
2023-03-10T16:38:18.237Z,99216.06
2023-03-10T16:40:54.537Z,99186.69
2023-03-10T16:43:25.971Z,99225.63
2023-03-10T16:46:08.316Z,99233.06
2023-03-10T16:48:42.294Z,99172.03
2023-03-10T16:51:25.135Z,99224.69
2023-03-10T16:53:59.159Z,99014.75
2023-03-10T16:56:32.237Z,99106.69
2023-03-10T16:59:32.552Z,99153.25
2023-03-10T17:02:03.021Z,99206.69
2023-03-10T17:04:33.394Z,99152.41
2023-03-10T17:07:07.450Z,99026.28
2023-03-10T17:09:38.345Z,99042.19
2023-03-10T17:12:15.132Z,99024.09
2023-03-10T17:14:48.962Z,99150.03
2023-03-10T17:17:19.163Z,99146.00
2023-03-10T17:19:51.892Z,99118.72
2023-03-10T17:22:30.855Z,99213.06
2023-03-10T17:25:01.045Z,99189.56
2023-03-10T17:27:37.035Z,99215.09
2023-03-10T17:30:07.798Z,99081.69
2023-03-10T17:32:40.934Z,99119.69
2023-03-10T17:35:13.913Z,99201.66
2023-03-10T17:37:49.117Z,99176.56
2023-03-10T17:40:21.846Z,99210.81
2023-03-10T17:43:17.336Z,99214.22
2023-03-10T17:45:57.523Z,99156.38
2023-03-10T17:48:27.710Z,99204.75
2023-03-10T17:50:57.611Z,99201.94
2023-03-10T17:53:28.429Z,99199.63
2023-03-10T17:56:05.470Z,99202.31
2023-03-10T17:58:37.051Z,99201.63
2023-03-10T18:01:12.628Z,99169.84
2023-03-10T18:03:42.049Z,99188.63
2023-03-10T18:06:15.821Z,99194.13
2023-03-10T18:08:45.165Z,99192.94
2023-03-10T18:11:14.966Z,99183.56
2023-03-10T18:13:46.283Z,99186.94
2023-03-10T18:16:18.067Z,99179.94
2023-03-10T18:18:48.162Z,99187.41
2023-03-10T18:21:19.301Z,99145.16
2023-03-10T18:23:51.515Z,99171.19
2023-03-10T18:26:24.162Z,99132.09
2023-03-10T18:28:55.191Z,99167.94
2023-03-10T18:31:26.678Z,99168.19
2023-03-10T18:33:56.540Z,99160.81
2023-03-10T18:36:28.289Z,99171.75
2023-03-10T18:38:58.564Z,99168.59
2023-03-10T18:41:31.060Z,99143.25
2023-03-10T18:44:02.202Z,99155.88
2023-03-10T18:46:31.852Z,99149.63
2023-03-10T18:49:03.249Z,99138.06
2023-03-10T18:51:33.357Z,99152.34
2023-03-10T18:54:05.880Z,99110.97
2023-03-10T18:56:37.395Z,99144.00
2023-03-10T18:59:09.272Z,99125.81
2023-03-10T19:01:39.677Z,99135.19
2023-03-10T19:04:10.303Z,99126.22
2023-03-10T19:06:40.581Z,99131.63
2023-03-10T19:09:10.208Z,99106.91
2023-03-10T19:11:40.188Z,99126.69
2023-03-10T19:14:12.927Z,99089.13
2023-03-10T19:16:42.874Z,99041.97
2023-03-10T19:19:13.075Z,99066.47
2023-03-10T19:21:44.345Z,99097.63
2023-03-10T19:24:13.777Z,99054.22
2023-03-10T19:27:07.821Z,99108.28
2023-03-10T19:29:42.840Z,99113.47
2023-03-10T19:32:12.025Z,99065.47
2023-03-10T19:34:41.974Z,99098.34
2023-03-10T19:37:12.639Z,99067.22
2023-03-10T19:39:45.556Z,99092.94
2023-03-10T19:42:18.971Z,99050.91
2023-03-10T19:44:50.098Z,99020.38
2023-03-10T19:47:19.624Z,99033.66
2023-03-10T19:49:52.671Z,98952.66
2023-03-10T19:52:23.851Z,99072.72
2023-03-10T19:55:00.847Z,99080.28
2023-03-10T19:57:30.399Z,99055.25
2023-03-10T20:00:01.540Z,99046.16
2023-03-10T20:02:34.028Z,99065.25
2023-03-10T20:05:03.957Z,99049.28
2023-03-10T20:07:50.278Z,98964.31
2023-03-10T20:10:23.420Z,99064.53
2023-03-10T20:12:53.858Z,99050.38
2023-03-10T20:15:28.070Z,99052.53
2023-03-10T20:17:58.808Z,99064.16
2023-03-10T20:20:28.941Z,99059.09
2023-03-10T20:22:58.209Z,99063.34
2023-03-10T20:25:28.158Z,99010.16
2023-03-10T20:28:00.190Z,99043.19
2023-03-10T20:30:44.405Z,99047.25
2023-03-10T20:33:22.823Z,98892.28
2023-03-10T20:35:57.638Z,98878.31
2023-03-10T20:38:43.172Z,98999.81
2023-03-10T20:41:13.455Z,98873.53
2023-03-10T20:43:44.082Z,99008.34
2023-03-10T20:46:17.666Z,99043.34
2023-03-10T20:48:49.798Z,99046.72
2023-03-10T20:51:23.519Z,99038.81
2023-03-10T20:53:57.161Z,98971.00
2023-03-10T20:56:26.512Z,98957.66
2023-03-10T20:58:59.581Z,99021.56
2023-03-10T21:02:00.692Z,99016.91
2023-03-10T21:04:36.037Z,99022.91
2023-03-10T21:07:11.628Z,98885.31
2023-03-10T21:09:47.836Z,98943.66
2023-03-10T21:12:23.324Z,99013.47
2023-03-10T21:14:52.756Z,99023.59
2023-03-10T21:17:24.688Z,98974.00
2023-03-10T21:19:54.110Z,98996.53
2023-03-10T21:22:23.512Z,99013.31
2023-03-10T21:24:53.305Z,99013.31
2023-03-10T21:27:27.491Z,98992.19
2023-03-10T21:29:57.532Z,99004.59
2023-03-10T21:32:31.226Z,98972.19
2023-03-10T21:35:00.962Z,98957.78
2023-03-10T21:37:30.291Z,98999.69
2023-03-10T21:40:05.504Z,98998.22
2023-03-10T21:42:41.193Z,98907.31
2023-03-10T21:45:13.022Z,98974.16
2023-03-10T21:47:44.869Z,98989.31
2023-03-10T21:50:16.237Z,98984.06
2023-03-10T21:52:45.994Z,98991.31
2023-03-10T21:55:20.118Z,98979.56
2023-03-10T21:57:50.292Z,98979.06
2023-03-10T22:00:23.414Z,98978.59
2023-03-10T22:03:04.307Z,98961.75
2023-03-10T22:05:33.623Z,98916.88
2023-03-10T22:08:02.745Z,98944.31
2023-03-10T22:10:32.161Z,98902.66
2023-03-10T22:13:04.173Z,98931.25
2023-03-10T22:15:34.383Z,98963.72
2023-03-10T22:18:05.470Z,98970.19
2023-03-10T22:20:37.498Z,98963.22
2023-03-10T22:23:08.000Z,98953.38
2023-03-10T22:25:37.458Z,98963.72
2023-03-10T22:28:06.855Z,98945.41
2023-03-10T22:30:37.107Z,98953.13
2023-03-10T22:33:08.180Z,98948.75
2023-03-10T22:35:38.144Z,98958.53
2023-03-10T22:38:07.992Z,98951.16
2023-03-10T22:40:37.232Z,98932.88
2023-03-10T22:43:06.558Z,98929.66
2023-03-10T22:45:36.131Z,98938.44
2023-03-10T22:48:08.766Z,98929.75
2023-03-10T22:50:40.442Z,98941.84
2023-03-10T22:53:15.488Z,98908.66
2023-03-10T22:55:46.647Z,98936.53
2023-03-10T22:58:19.693Z,98939.91
2023-03-10T23:00:49.673Z,98939.41
2023-03-10T23:03:20.377Z,98911.31
2023-03-10T23:05:51.957Z,98941.13
2023-03-10T23:08:21.613Z,98932.38
2023-03-10T23:10:51.018Z,98931.03
2023-03-10T23:13:20.406Z,98913.84
2023-03-10T23:15:49.872Z,98932.03
2023-03-10T23:18:21.645Z,98932.84
2023-03-10T23:20:53.047Z,98899.69
2023-03-10T23:23:22.216Z,98928.44
2023-03-10T23:25:52.124Z,98920.38
2023-03-10T23:28:22.339Z,98920.63
2023-03-10T23:30:54.561Z,98911.38
2023-03-10T23:33:25.839Z,98912.56
2023-03-10T23:35:55.168Z,98923.13
2023-03-10T23:38:26.403Z,98907.50
2023-03-10T23:40:56.253Z,98911.59
2023-03-10T23:43:25.516Z,98917.47
2023-03-10T23:45:54.877Z,98901.75
2023-03-10T23:48:26.156Z,98899.25
2023-03-10T23:50:57.470Z,98903.31
2023-03-10T23:53:28.629Z,98896.84
2023-03-10T23:55:59.097Z,98855.28
2023-03-10T23:58:30.906Z,98847.84
